Time;durP1;ratioP1;P1;durP2;ratioP2;P2;SDS_P1;SDS_P2;PMS_P1;PMS_P2;Temp;Humidity;BMP_temperature;BMP_pressure;BME280_temperature;BME280_humidity;BME280_pressure;Samples;Min_cycle;Max_cycle;Signal;HPM_P1;HPM_P2
2021/06/03 00:01:08;;;;;;;11.43;7.57;;;;;;;;;;5012688;28;20053;-48
2021/06/03 00:03:36;;;;;;;10.93;7.97;;;;;;;;;;5011235;28;20442;-48
2021/06/03 00:06:05;;;;;;;12.45;7.72;;;;;;;;;;5011631;28;20058;-47
2021/06/03 00:08:32;;;;;;;10.13;7.28;;;;;;;;;;5012908;28;20146;-48
2021/06/03 00:11:01;;;;;;;12.80;7.47;;;;;;;;;;5013678;28;20060;-50
2021/06/03 00:13:29;;;;;;;12.93;8.35;;;;;;;;;;5012318;28;20041;-52
2021/06/03 00:15:56;;;;;;;11.02;7.47;;;;;;;;;;5004069;28;20496;-52
2021/06/03 00:18:23;;;;;;;12.40;8.45;;;;;;;;;;4999159;28;20116;-49
2021/06/03 00:20:51;;;;;;;11.48;8.40;;;;;;;;;;5013492;28;20507;-48
2021/06/03 00:23:18;;;;;;;15.98;8.65;;;;;;;;;;5012153;28;20042;-50
2021/06/03 00:25:45;;;;;;;12.15;8.80;;;;;;;;;;5013570;28;20056;-48
2021/06/03 00:28:31;;;;;;;14.27;8.60;;;;;;;;;;5007820;28;20481;-48
2021/06/03 00:31:04;;;;;;;13.32;8.75;;;;;;;;;;4993838;28;20058;-49
2021/06/03 00:33:31;;;;;;;12.80;8.27;;;;;;;;;;5006797;28;20046;-49
2021/06/03 00:36:04;;;;;;;11.55;8.10;;;;;;;;;;5013275;28;20061;-49
2021/06/03 00:38:31;;;;;;;13.52;8.40;;;;;;;;;;4999676;28;20099;-48
2021/06/03 00:40:58;;;;;;;15.50;8.70;;;;;;;;;;5012607;28;20052;-51
2021/06/03 00:43:24;;;;;;;12.23;7.97;;;;;;;;;;5012661;28;20084;-50
2021/06/03 00:45:51;;;;;;;17.70;9.02;;;;;;;;;;5010770;28;20100;-49
2021/06/03 00:48:19;;;;;;;10.73;8.52;;;;;;;;;;4993595;28;20061;-48
2021/06/03 00:50:48;;;;;;;12.52;8.38;;;;;;;;;;4996037;28;20082;-49
2021/06/03 00:53:16;;;;;;;13.55;8.68;;;;;;;;;;4985317;28;20056;-48
2021/06/03 00:55:44;;;;;;;11.38;7.95;;;;;;;;;;4992558;28;20747;-51
2021/06/03 00:58:15;;;;;;;14.65;9.02;;;;;;;;;;4992355;28;20392;-47
2021/06/03 01:00:43;;;;;;;13.75;9.20;;;;;;;;;;4991630;28;20054;-48
2021/06/03 01:03:11;;;;;;;14.00;8.93;;;;;;;;;;4991454;28;20046;-47
2021/06/03 01:05:46;;;;;;;14.63;9.65;;;;;;;;;;5007279;28;20060;-47
2021/06/03 01:08:18;;;;;;;13.45;8.70;;;;;;;;;;5000599;28;20050;-51
2021/06/03 01:11:06;;;;;;;12.30;8.77;;;;;;;;;;5006216;28;20054;-51
2021/06/03 01:13:33;;;;;;;13.43;9.00;;;;;;;;;;5012126;28;20060;-47
2021/06/03 01:16:02;;;;;;;13.35;9.57;;;;;;;;;;5010728;28;20053;-47
2021/06/03 01:18:31;;;;;;;15.15;8.77;;;;;;;;;;4993222;28;20050;-48
2021/06/03 01:20:58;;;;;;;12.82;8.90;;;;;;;;;;4992470;28;20089;-50
2021/06/03 01:23:32;;;;;;;12.95;8.82;;;;;;;;;;5002785;28;20052;-49
2021/06/03 01:26:00;;;;;;;12.90;9.07;;;;;;;;;;5010201;28;20049;-51
2021/06/03 01:28:27;;;;;;;12.00;8.73;;;;;;;;;;5001548;28;20060;-50
2021/06/03 01:30:55;;;;;;;12.70;8.40;;;;;;;;;;5012126;28;20168;-48
2021/06/03 01:33:24;;;;;;;10.35;8.30;;;;;;;;;;5010198;28;20054;-49
2021/06/03 01:35:54;;;;;;;11.32;8.45;;;;;;;;;;5008622;28;20038;-50
2021/06/03 01:38:25;;;;;;;10.20;7.45;;;;;;;;;;5002455;28;20483;-53
2021/06/03 01:40:52;;;;;;;11.18;7.55;;;;;;;;;;5002276;28;20073;-47
2021/06/03 01:43:21;;;;;;;10.02;7.60;;;;;;;;;;5011932;28;20101;-48
2021/06/03 01:45:49;;;;;;;8.35;6.68;;;;;;;;;;5010867;28;20060;-47
2021/06/03 01:48:20;;;;;;;11.13;6.65;;;;;;;;;;5009187;28;20058;-51
2021/06/03 01:50:49;;;;;;;27.27;16.25;;;;;;;;;;5010605;28;20053;-50
2021/06/03 01:53:17;;;;;;;13.00;7.72;;;;;;;;;;4998314;28;20046;-47
2021/06/03 01:55:44;;;;;;;8.07;6.40;;;;;;;;;;5006383;28;20060;-50
2021/06/03 01:58:12;;;;;;;10.82;6.30;;;;;;;;;;5007321;28;20057;-50
2021/06/03 02:00:43;;;;;;;8.90;6.20;;;;;;;;;;5009575;28;20411;-48
2021/06/03 02:03:10;;;;;;;9.65;6.82;;;;;;;;;;5010203;28;20073;-48
2021/06/03 02:05:37;;;;;;;12.25;7.30;;;;;;;;;;5004121;28;20419;-48
2021/06/03 02:08:04;;;;;;;9.48;6.40;;;;;;;;;;5008287;28;20127;-49
2021/06/03 02:10:40;;;;;;;9.57;6.78;;;;;;;;;;5010456;28;20046;-49
2021/06/03 02:13:19;;;;;;;6.78;5.85;;;;;;;;;;4995586;28;20142;-51
2021/06/03 02:15:56;;;;;;;11.55;6.43;;;;;;;;;;5008578;28;20042;-47
2021/06/03 02:18:29;;;;;;;7.65;6.65;;;;;;;;;;5010850;28;20072;-48
2021/06/03 02:20:57;;;;;;;7.50;6.45;;;;;;;;;;5000290;28;20051;-48
2021/06/03 02:23:25;;;;;;;8.77;6.47;;;;;;;;;;4974402;28;20424;-48
2021/06/03 02:25:57;;;;;;;9.75;6.75;;;;;;;;;;4990517;28;20058;-47
2021/06/03 02:28:26;;;;;;;;;;;;;;;;;;4992238;28;20050;-51
2021/06/03 02:30:54;;;;;;;11.88;6.68;;;;;;;;;;4995737;28;19922;-50
2021/06/03 02:33:22;;;;;;;8.43;5.80;;;;;;;;;;5014248;28;20046;-47
2021/06/03 02:35:50;;;;;;;8.15;6.25;;;;;;;;;;5015245;28;20046;-49
2021/06/03 02:38:25;;;;;;;9.05;6.82;;;;;;;;;;5000676;28;20575;-49
2021/06/03 02:40:53;;;;;;;8.15;6.45;;;;;;;;;;4994475;28;20046;-48
2021/06/03 02:43:21;;;;;;;9.25;6.53;;;;;;;;;;4995733;28;20054;-48
2021/06/03 02:45:48;;;;;;;8.82;6.40;;;;;;;;;;4985395;28;20052;-47
2021/06/03 02:48:15;;;;;;;8.25;6.68;;;;;;;;;;5012345;28;20050;-51
2021/06/03 02:50:44;;;;;;;10.13;6.18;;;;;;;;;;5015160;28;20068;-50
2021/06/03 02:53:11;;;;;;;8.20;5.82;;;;;;;;;;5013497;28;20056;-48
2021/06/03 02:55:42;;;;;;;7.88;6.10;;;;;;;;;;4990766;28;20047;-48
2021/06/03 02:58:11;;;;;;;10.25;6.15;;;;;;;;;;4986806;28;20048;-48
2021/06/03 03:00:42;;;;;;;11.35;6.18;;;;;;;;;;4993955;28;20468;-47
2021/06/03 03:03:10;;;;;;;7.88;5.70;;;;;;;;;;5016248;28;20099;-48
2021/06/03 03:05:40;;;;;;;7.50;6.20;;;;;;;;;;5015015;28;20543;-49
2021/06/03 03:08:08;;;;;;;7.10;6.10;;;;;;;;;;5003508;28;20464;-49
2021/06/03 03:10:39;;;;;;;7.53;5.60;;;;;;;;;;4995356;28;20051;-50
2021/06/03 03:13:09;;;;;;;8.88;6.32;;;;;;;;;;4993711;28;20141;-50
2021/06/03 03:15:37;;;;;;;6.35;5.65;;;;;;;;;;4995322;28;20078;-47
2021/06/03 03:18:05;;;;;;;8.60;5.80;;;;;;;;;;5008429;28;20042;-47
2021/06/03 03:20:33;;;;;;;6.97;5.43;;;;;;;;;;5009339;28;20049;-50
2021/06/03 03:23:01;;;;;;;6.30;5.22;;;;;;;;;;5013093;28;20054;-47
2021/06/03 03:25:30;;;;;;;7.57;5.15;;;;;;;;;;5013241;28;20134;-47
2021/06/03 03:28:02;;;;;;;6.05;4.85;;;;;;;;;;4996158;28;20050;-51
2021/06/03 03:30:29;;;;;;;6.15;4.95;;;;;;;;;;4994472;28;20574;-50
2021/06/03 03:32:57;;;;;;;6.60;5.22;;;;;;;;;;4993162;28;20133;-47
2021/06/03 03:35:27;;;;;;;8.98;5.50;;;;;;;;;;4997026;28;20070;-46
2021/06/03 03:37:54;;;;;;;8.55;5.45;;;;;;;;;;5010969;28;20053;-47
2021/06/03 03:40:23;;;;;;;7.55;5.03;;;;;;;;;;5012301;28;20411;-47
2021/06/03 03:42:52;;;;;;;6.05;5.10;;;;;;;;;;5014242;28;20470;-49
2021/06/03 03:45:22;;;;;;;6.70;4.97;;;;;;;;;;4995749;28;20061;-47
2021/06/03 03:47:50;;;;;;;8.00;4.88;;;;;;;;;;4997187;28;20044;-49
2021/06/03 03:50:19;;;;;;;7.80;5.20;;;;;;;;;;5013871;28;20121;-47
2021/06/03 03:52:48;;;;;;;6.82;4.75;;;;;;;;;;5007902;28;20046;-47
2021/06/03 03:55:15;;;;;;;8.93;5.88;;;;;;;;;;5012323;28;20566;-46
2021/06/03 03:57:43;;;;;;;6.15;4.85;;;;;;;;;;5013212;28;20050;-49
2021/06/03 04:00:15;;;;;;;6.07;4.97;;;;;;;;;;4995826;28;20451;-46
2021/06/03 04:02:42;;;;;;;6.32;5.03;;;;;;;;;;4995787;28;20527;-47
2021/06/03 04:05:12;;;;;;;7.13;5.13;;;;;;;;;;5012677;28;20108;-51
2021/06/03 04:07:39;;;;;;;7.13;5.10;;;;;;;;;;5007920;28;20039;-46
2021/06/03 04:10:10;;;;;;;6.88;5.32;;;;;;;;;;4995946;28;20053;-46
2021/06/03 04:12:37;;;;;;;6.72;5.15;;;;;;;;;;5012377;28;20046;-47
2021/06/03 04:15:05;;;;;;;7.05;5.00;;;;;;;;;;5013188;28;20050;-47
2021/06/03 04:17:33;;;;;;;8.32;5.20;;;;;;;;;;4996520;28;20415;-50
2021/06/03 04:20:03;;;;;;;8.13;5.15;;;;;;;;;;4992820;28;20055;-49
2021/06/03 04:22:33;;;;;;;9.63;4.72;;;;;;;;;;4993685;28;20054;-47
2021/06/03 04:25:00;;;;;;;6.35;5.10;;;;;;;;;;5015174;28;20419;-49
2021/06/03 04:27:28;;;;;;;7.13;5.30;;;;;;;;;;5012382;28;20054;-52
2021/06/03 04:29:55;;;;;;;7.05;4.75;;;;;;;;;;5000625;28;20058;-46
2021/06/03 04:32:21;;;;;;;8.38;5.20;;;;;;;;;;5013348;28;20447;-48
2021/06/03 04:34:48;;;;;;;7.55;5.25;;;;;;;;;;5013005;28;20053;-47
2021/06/03 04:37:15;;;;;;;8.13;4.57;;;;;;;;;;5011917;28;20056;-46
2021/06/03 04:39:42;;;;;;;5.57;4.90;;;;;;;;;;4992574;28;20484;-47
2021/06/03 04:42:09;;;;;;;7.05;5.13;;;;;;;;;;4993766;28;20133;-47
2021/06/03 04:44:36;;;;;;;10.20;5.75;;;;;;;;;;5000092;28;20042;-47
2021/06/03 04:47:03;;;;;;;6.30;4.68;;;;;;;;;;5010957;28;20054;-51
2021/06/03 04:49:30;;;;;;;6.70;5.00;;;;;;;;;;5010868;28;20096;-49
2021/06/03 04:52:24;;;;;;;6.65;5.05;;;;;;;;;;5009522;28;20054;-49
2021/06/03 04:54:43;;;;;;;7.70;4.93;;;;;;;;;;5013075;28;20092;-49
2021/06/03 04:57:10;;;;;;;6.78;4.82;;;;;;;;;;5011040;28;20443;-47
2021/06/03 04:59:37;;;;;;;7.78;4.40;;;;;;;;;;5000356;28;20108;-49
2021/06/03 05:02:04;;;;;;;7.07;4.47;;;;;;;;;;5003188;28;20419;-46
2021/06/03 05:04:31;;;;;;;6.90;5.15;;;;;;;;;;5012424;28;20050;-46
2021/06/03 05:06:58;;;;;;;5.93;4.60;;;;;;;;;;5012118;28;20164;-46
2021/06/03 05:09:24;;;;;;;6.18;4.88;;;;;;;;;;4995900;28;20085;-47
2021/06/03 05:11:51;;;;;;;9.05;5.30;;;;;;;;;;5000067;28;20050;-50
2021/06/03 05:14:18;;;;;;;6.20;5.13;;;;;;;;;;5012676;28;20046;-49
2021/06/03 05:16:45;;;;;;;7.03;4.88;;;;;;;;;;5011830;28;20050;-49
2021/06/03 05:19:12;;;;;;;6.53;4.75;;;;;;;;;;4999898;28;20047;-49
2021/06/03 05:21:39;;;;;;;8.23;5.32;;;;;;;;;;5001560;28;20056;-48
2021/06/03 05:24:06;;;;;;;6.65;4.60;;;;;;;;;;5012588;28;20062;-48
2021/06/03 05:26:33;;;;;;;7.00;4.68;;;;;;;;;;5015839;23;20029;-51
2021/06/03 05:28:59;;;;;;;5.00;4.35;;;;;;;;;;4991814;28;20404;-44
2021/06/03 05:31:26;;;;;;;6.30;4.63;;;;;;;;;;4992021;28;20098;-45
2021/06/03 05:33:53;;;;;;;6.70;5.47;;;;;;;;;;4991995;28;20058;-45
2021/06/03 05:36:20;;;;;;;7.88;5.00;;;;;;;;;;5003884;28;20053;-49
2021/06/03 05:38:47;;;;;;;6.32;4.75;;;;;;;;;;5001854;28;20084;-46
2021/06/03 05:41:14;;;;;;;5.95;4.75;;;;;;;;;;5011951;28;20116;-49
2021/06/03 05:43:42;;;;;;;4.78;4.03;;;;;;;;;;5011133;28;20050;-45
2021/06/03 05:46:09;;;;;;;5.30;4.22;;;;;;;;;;5009732;28;20145;-44
2021/06/03 05:48:36;;;;;;;8.23;4.38;;;;;;;;;;5001714;28;20058;-45
2021/06/03 05:51:02;;;;;;;9.18;4.45;;;;;;;;;;5011040;28;20202;-46
2021/06/03 05:53:29;;;;;;;8.75;4.35;;;;;;;;;;5010434;28;20081;-46
2021/06/03 05:55:56;;;;;;;5.63;4.55;;;;;;;;;;5002580;28;20081;-44
2021/06/03 05:58:23;;;;;;;4.65;4.15;;;;;;;;;;4990870;28;20475;-47
2021/06/03 06:00:50;;;;;;;4.95;4.07;;;;;;;;;;4994518;28;20070;-46
2021/06/03 06:03:23;;;;;;;7.55;3.78;;;;;;;;;;5010434;28;20491;-43
2021/06/03 06:08:34;;;;;;;5.60;4.13;;;;;;;;;;5007388;28;20053;-49
2021/06/03 06:11:01;;;;;;;5.30;4.00;;;;;;;;;;5009673;28;20058;-50
2021/06/03 06:13:28;;;;;;;5.85;4.18;;;;;;;;;;5011307;28;20046;-45
2021/06/03 06:15:55;;;;;;;6.13;4.00;;;;;;;;;;4998940;28;20051;-53
2021/06/03 06:18:22;;;;;;;4.70;3.80;;;;;;;;;;4990624;28;20062;-47
2021/06/03 06:20:49;;;;;;;6.47;4.15;;;;;;;;;;5006333;28;20046;-47
2021/06/03 06:23:16;;;;;;;7.20;3.60;;;;;;;;;;4996159;28;20049;-48
2021/06/03 06:25:43;;;;;;;5.47;3.75;;;;;;;;;;5008418;28;20112;-48
2021/06/03 06:28:11;;;;;;;5.07;3.40;;;;;;;;;;5001621;28;20138;-48
2021/06/03 06:30:38;;;;;;;7.05;3.30;;;;;;;;;;5007424;28;20141;-52
2021/06/03 06:33:05;;;;;;;4.97;3.50;;;;;;;;;;5008282;28;20050;-48
2021/06/03 06:35:32;;;;;;;4.15;3.47;;;;;;;;;;5010711;28;20495;-48
2021/06/03 06:37:59;;;;;;;6.13;3.55;;;;;;;;;;5005573;28;20092;-50
2021/06/03 06:40:26;;;;;;;5.03;3.53;;;;;;;;;;5010460;28;20491;-48
2021/06/03 06:42:54;;;;;;;6.80;3.60;;;;;;;;;;5010309;28;20088;-46
2021/06/03 06:45:21;;;;;;;8.05;4.30;;;;;;;;;;4998762;28;20667;-46
2021/06/03 06:47:48;;;;;;;4.97;3.55;;;;;;;;;;5001963;28;20054;-46
2021/06/03 06:50:16;;;;;;;5.30;3.65;;;;;;;;;;4989742;28;20618;-49
2021/06/03 06:52:42;;;;;;;4.45;3.40;;;;;;;;;;4991271;28;20057;-48
2021/06/03 06:55:09;;;;;;;6.43;3.95;;;;;;;;;;4992190;28;20566;-48
2021/06/03 06:57:37;;;;;;;5.13;3.75;;;;;;;;;;4990484;28;20082;-47
2021/06/03 07:00:12;;;;;;;6.28;3.53;;;;;;;;;;4993027;28;20042;-49
2021/06/03 07:02:39;;;;;;;5.10;3.40;;;;;;;;;;5010559;28;20054;-47
2021/06/03 07:05:07;;;;;;;4.25;3.45;;;;;;;;;;5010336;28;20065;-46
2021/06/03 07:07:34;;;;;;;4.60;3.40;;;;;;;;;;5009988;28;20088;-50
2021/06/03 07:10:01;;;;;;;4.13;3.58;;;;;;;;;;5005351;28;20050;-45
2021/06/03 07:12:28;;;;;;;4.03;3.50;;;;;;;;;;4990863;28;20054;-50
2021/06/03 07:14:55;;;;;;;5.60;3.70;;;;;;;;;;5000161;28;20082;-49
2021/06/03 07:17:21;;;;;;;4.88;3.55;;;;;;;;;;5012451;28;20050;-46
2021/06/03 07:19:48;;;;;;;5.22;3.50;;;;;;;;;;5013670;28;20042;-48
2021/06/03 07:22:15;;;;;;;4.65;3.30;;;;;;;;;;5011293;28;20081;-48
2021/06/03 07:24:43;;;;;;;5.03;3.42;;;;;;;;;;5005436;28;20054;-53
2021/06/03 07:27:09;;;;;;;5.93;3.25;;;;;;;;;;5012871;28;20049;-58
2021/06/03 07:29:36;;;;;;;6.40;3.42;;;;;;;;;;5011461;28;20207;-49
2021/06/03 07:32:03;;;;;;;4.45;3.33;;;;;;;;;;5005794;28;20050;-47
2021/06/03 07:34:30;;;;;;;6.20;3.55;;;;;;;;;;4999688;28;20049;-44
2021/06/03 07:36:57;;;;;;;4.63;3.28;;;;;;;;;;5012436;28;20045;-50
2021/06/03 07:39:24;;;;;;;5.35;3.42;;;;;;;;;;5005730;28;20530;-45
2021/06/03 07:41:51;;;;;;;4.53;3.50;;;;;;;;;;5012976;28;20061;-48
2021/06/03 07:44:18;;;;;;;4.75;3.50;;;;;;;;;;5013284;28;20173;-48
2021/06/03 07:46:46;;;;;;;4.20;3.55;;;;;;;;;;4995392;28;20073;-46
2021/06/03 07:49:13;;;;;;;5.20;3.30;;;;;;;;;;5008330;28;20050;-47
2021/06/03 07:51:41;;;;;;;4.63;3.20;;;;;;;;;;5013533;28;20120;-45
2021/06/03 07:54:08;;;;;;;6.18;3.35;;;;;;;;;;5012833;28;20088;-51
2021/06/03 07:56:35;;;;;;;4.05;3.35;;;;;;;;;;5009491;28;20046;-46
2021/06/03 07:59:03;;;;;;;4.10;3.50;;;;;;;;;;5005527;28;20042;-47
2021/06/03 08:01:29;;;;;;;3.45;3.15;;;;;;;;;;5005291;28;20522;-44
2021/06/03 08:03:56;;;;;;;5.35;3.90;;;;;;;;;;5012873;28;20053;-46
2021/06/03 08:06:23;;;;;;;4.88;3.50;;;;;;;;;;5000762;28;20105;-51
2021/06/03 08:08:51;;;;;;;5.43;3.45;;;;;;;;;;5009916;28;20108;-51
2021/06/03 08:11:18;;;;;;;5.88;3.20;;;;;;;;;;5011260;28;20073;-52
2021/06/03 08:13:45;;;;;;;4.32;3.50;;;;;;;;;;5006217;28;20061;-52
2021/06/03 08:16:12;;;;;;;4.15;3.42;;;;;;;;;;5006121;28;20120;-45
2021/06/03 08:18:38;;;;;;;5.18;3.20;;;;;;;;;;4999547;28;20407;-52
2021/06/03 08:21:06;;;;;;;5.45;3.40;;;;;;;;;;5012530;28;20061;-53
2021/06/03 08:23:32;;;;;;;3.60;3.30;;;;;;;;;;5013471;28;20045;-45
2021/06/03 08:25:59;;;;;;;4.50;3.58;;;;;;;;;;5010993;28;20474;-45
2021/06/03 08:28:27;;;;;;;5.15;3.75;;;;;;;;;;4996579;28;20057;-43
2021/06/03 08:30:56;;;;;;;5.10;3.85;;;;;;;;;;5008514;28;20499;-52
2021/06/03 08:33:24;;;;;;;3.97;3.30;;;;;;;;;;4993478;28;20050;-48
2021/06/03 08:35:51;;;;;;;4.95;3.65;;;;;;;;;;5015310;28;20100;-50
2021/06/03 08:38:18;;;;;;;4.97;3.75;;;;;;;;;;5009897;28;20054;-48
2021/06/03 08:40:56;;;;;;;8.18;3.50;;;;;;;;;;5002289;28;20056;-52
2021/06/03 08:43:26;;;;;;;7.07;3.78;;;;;;;;;;5019610;28;20058;-51
2021/06/03 08:45:53;;;;;;;5.57;3.45;;;;;;;;;;5010681;28;20046;-49
2021/06/03 08:48:20;;;;;;;6.93;3.92;;;;;;;;;;5008579;28;20060;-47
2021/06/03 08:50:49;;;;;;;5.47;3.47;;;;;;;;;;5012766;28;20071;-51
2021/06/03 08:53:16;;;;;;;6.13;3.95;;;;;;;;;;5014435;28;20053;-48
2021/06/03 08:58:29;;;;;;;4.68;3.85;;;;;;;;;;5004605;28;20470;-53
2021/06/03 09:00:57;;;;;;;4.43;3.25;;;;;;;;;;5010035;28;20050;-48
2021/06/03 09:03:26;;;;;;;5.63;3.58;;;;;;;;;;5014679;28;20125;-49
2021/06/03 09:05:54;;;;;;;4.63;3.40;;;;;;;;;;5013698;28;20053;-51
2021/06/03 09:08:28;;;;;;;7.07;3.30;;;;;;;;;;4997733;28;20061;-50
2021/06/03 09:10:59;;;;;;;5.60;3.25;;;;;;;;;;5006500;28;20092;-46
2021/06/03 09:13:31;;;;;;;4.47;3.50;;;;;;;;;;5010778;28;20108;-51
2021/06/03 09:16:00;;;;;;;7.55;3.53;;;;;;;;;;5011386;28;20129;-45
2021/06/03 09:18:36;;;;;;;4.88;3.10;;;;;;;;;;5011561;28;20444;-48
2021/06/03 09:21:11;;;;;;;9.23;7.40;;;;;;;;;;5010591;28;20053;-46
2021/06/03 09:23:39;;;;;;;7.57;3.78;;;;;;;;;;5002927;28;20503;-49
2021/06/03 09:26:07;;;;;;;5.43;3.50;;;;;;;;;;5008160;28;20050;-49
2021/06/03 09:28:38;;;;;;;5.40;3.78;;;;;;;;;;5001649;28;20054;-45
2021/06/03 09:31:05;;;;;;;5.22;3.67;;;;;;;;;;5008299;28;20069;-45
2021/06/03 09:33:38;;;;;;;4.05;3.63;;;;;;;;;;5010975;28;20053;-51
2021/06/03 09:36:06;;;;;;;4.90;3.70;;;;;;;;;;5010758;28;20062;-51
2021/06/03 09:38:33;;;;;;;6.05;3.60;;;;;;;;;;4994783;28;20057;-48
2021/06/03 09:41:00;;;;;;;7.72;3.72;;;;;;;;;;5010756;28;20052;-50
2021/06/03 09:43:27;;;;;;;6.80;3.70;;;;;;;;;;5011812;28;20108;-49
2021/06/03 09:45:56;;;;;;;7.13;3.83;;;;;;;;;;5007521;28;20096;-47
2021/06/03 09:48:37;;;;;;;4.57;3.72;;;;;;;;;;5009477;28;20049;-51
2021/06/03 09:51:16;;;;;;;5.45;4.00;;;;;;;;;;5002300;28;20057;-45
2021/06/03 09:53:49;;;;;;;4.55;3.75;;;;;;;;;;5012159;28;20080;-48
2021/06/03 09:56:29;;;;;;;5.10;3.70;;;;;;;;;;5003657;28;20061;-48
2021/06/03 09:58:56;;;;;;;6.45;3.60;;;;;;;;;;5008445;28;20104;-50
2021/06/03 10:01:46;;;;;;;5.75;3.92;;;;;;;;;;5008659;28;20133;-47
2021/06/03 10:04:15;;;;;;;5.20;3.75;;;;;;;;;;5007663;28;20348;-47
2021/06/03 10:06:56;;;;;;;6.13;3.70;;;;;;;;;;5007796;28;20046;-49
2021/06/03 10:09:37;;;;;;;7.80;3.92;;;;;;;;;;5008626;28;20456;-48
2021/06/03 10:12:06;;;;;;;4.53;3.28;;;;;;;;;;5009703;28;20407;-53
2021/06/03 10:14:33;;;;;;;6.57;3.80;;;;;;;;;;5006113;28;20088;-47
2021/06/03 10:17:16;;;;;;;4.07;3.47;;;;;;;;;;5001876;28;20045;-52
2021/06/03 10:19:43;;;;;;;4.97;3.78;;;;;;;;;;5000036;28;20073;-48
2021/06/03 10:22:11;;;;;;;7.57;3.75;;;;;;;;;;5010173;28;20100;-47
2021/06/03 10:24:50;;;;;;;5.05;3.95;;;;;;;;;;5007311;28;20054;-47
2021/06/03 10:27:18;;;;;;;8.63;3.50;;;;;;;;;;5008014;28;20053;-43
2021/06/03 10:29:47;;;;;;;7.25;3.65;;;;;;;;;;5008226;28;20112;-45
2021/06/03 10:32:22;;;;;;;7.00;3.72;;;;;;;;;;5008092;28;20437;-48
2021/06/03 10:34:50;;;;;;;6.28;4.10;;;;;;;;;;5009433;28;20050;-46
2021/06/03 10:37:17;;;;;;;6.38;4.20;;;;;;;;;;5009344;28;20038;-49
2021/06/03 10:39:45;;;;;;;7.13;3.78;;;;;;;;;;5007905;28;20096;-49
2021/06/03 10:42:13;;;;;;;5.22;3.42;;;;;;;;;;4991297;28;20034;-49
2021/06/03 10:44:41;;;;;;;5.85;3.80;;;;;;;;;;5008696;28;20049;-50
2021/06/03 10:47:08;;;;;;;4.25;3.22;;;;;;;;;;5008900;28;20058;-51
2021/06/03 10:49:46;;;;;;;4.72;3.42;;;;;;;;;;4990015;28;20396;-46
2021/06/03 10:52:15;;;;;;;6.88;4.07;;;;;;;;;;4995325;28;20050;-51
2021/06/03 10:54:46;;;;;;;5.80;3.33;;;;;;;;;;4995440;28;20196;-51
2021/06/03 10:57:13;;;;;;;4.32;3.53;;;;;;;;;;4994167;28;20133;-51
2021/06/03 10:59:41;;;;;;;5.18;3.53;;;;;;;;;;4997785;28;20466;-52
2021/06/03 11:02:09;;;;;;;7.05;3.75;;;;;;;;;;4995092;28;20153;-50
2021/06/03 11:04:37;;;;;;;4.97;3.42;;;;;;;;;;4995083;28;20104;-50
2021/06/03 11:07:05;;;;;;;4.88;3.60;;;;;;;;;;4994775;28;20054;-46
2021/06/03 11:09:33;;;;;;;5.55;3.88;;;;;;;;;;4993969;28;20471;-48
2021/06/03 11:12:06;;;;;;;5.97;3.55;;;;;;;;;;4995228;28;20050;-51
2021/06/03 11:14:32;;;;;;;5.78;3.50;;;;;;;;;;4994976;28;20125;-45
2021/06/03 11:17:00;;;;;;;5.13;3.53;;;;;;;;;;5005954;28;20504;-52
2021/06/03 11:19:27;;;;;;;4.57;3.47;;;;;;;;;;4994738;28;20050;-47
2021/06/03 11:22:00;;;;;;;5.97;4.53;;;;;;;;;;4994632;28;20043;-51
2021/06/03 11:24:27;;;;;;;5.13;4.20;;;;;;;;;;4994894;28;20085;-52
2021/06/03 11:26:55;;;;;;;6.78;4.00;;;;;;;;;;4994107;28;20165;-51
2021/06/03 11:29:25;;;;;;;5.50;3.80;;;;;;;;;;5002415;28;20224;-47
2021/06/03 11:32:11;;;;;;;4.38;3.97;;;;;;;;;;5013251;28;20108;-50
2021/06/03 11:34:39;;;;;;;5.68;4.00;;;;;;;;;;4994289;28;20550;-48
2021/06/03 11:37:05;;;;;;;8.98;3.92;;;;;;;;;;4994839;28;20070;-46
2021/06/03 11:39:32;;;;;;;6.20;3.50;;;;;;;;;;4995070;28;20046;-48
2021/06/03 11:42:14;;;;;;;4.03;3.47;;;;;;;;;;4994139;28;20068;-49
2021/06/03 11:45:03;;;;;;;5.13;3.73;;;;;;;;;;4994299;28;20104;-48
2021/06/03 11:47:55;;;;;;;4.93;3.42;;;;;;;;;;5010936;28;20134;-49
2021/06/03 11:50:21;;;;;;;6.03;3.55;;;;;;;;;;5013947;28;20399;-51
2021/06/03 11:53:04;;;;;;;5.50;3.80;;;;;;;;;;5013729;28;20041;-44
2021/06/03 11:55:46;;;;;;;5.15;3.92;;;;;;;;;;5013853;28;20103;-45
2021/06/03 11:58:19;;;;;;;5.90;3.90;;;;;;;;;;4998851;28;20500;-49
2021/06/03 12:00:49;;;;;;;6.57;3.75;;;;;;;;;;5008859;28;20050;-44
2021/06/03 12:03:22;;;;;;;4.95;3.90;;;;;;;;;;4993824;28;20487;-47
2021/06/03 12:05:52;;;;;;;4.07;3.45;;;;;;;;;;4994213;28;20439;-47
2021/06/03 12:08:37;;;;;;;5.50;3.78;;;;;;;;;;5000718;28;20196;-43
2021/06/03 12:11:05;;;;;;;4.75;3.40;;;;;;;;;;4994167;28;20050;-44
2021/06/03 12:13:32;;;;;;;5.10;3.53;;;;;;;;;;4992765;28;20054;-45
2021/06/03 12:15:59;;;;;;;7.47;3.55;;;;;;;;;;4997244;28;20046;-44
2021/06/03 12:18:34;;;;;;;6.00;4.03;;;;;;;;;;5021525;28;20645;-47
2021/06/03 12:21:00;;;;;;;5.20;3.28;;;;;;;;;;5012931;28;20054;-47
2021/06/03 12:23:28;;;;;;;4.20;3.13;;;;;;;;;;4995916;28;20049;-47
2021/06/03 12:25:54;;;;;;;4.15;3.25;;;;;;;;;;4993688;28;20058;-49
2021/06/03 12:28:21;;;;;;;3.88;3.47;;;;;;;;;;4993311;28;20427;-48
2021/06/03 12:30:48;;;;;;;5.07;3.10;;;;;;;;;;4993362;28;20062;-47
2021/06/03 12:33:28;;;;;;;7.22;3.15;;;;;;;;;;4993482;28;20054;-45
2021/06/03 12:35:55;;;;;;;5.40;2.90;;;;;;;;;;4993026;28;20050;-45
2021/06/03 12:38:27;;;;;;;5.90;3.33;;;;;;;;;;4992684;28;20085;-43
2021/06/03 12:40:54;;;;;;;6.75;3.15;;;;;;;;;;5001977;28;20562;-47
2021/06/03 12:43:21;;;;;;;4.93;3.35;;;;;;;;;;5013006;28;20046;-46
2021/06/03 12:45:48;;;;;;;4.50;3.80;;;;;;;;;;5012959;28;20086;-41
2021/06/03 12:48:15;;;;;;;7.13;3.40;;;;;;;;;;5009122;28;20651;-46
2021/06/03 12:50:44;;;;;;;8.13;3.88;;;;;;;;;;5012360;28;20077;-44
2021/06/03 12:53:12;;;;;;;6.35;3.40;;;;;;;;;;5012349;28;20108;-42
2021/06/03 12:55:39;;;;;;;10.85;4.10;;;;;;;;;;5011137;28;20096;-42
2021/06/03 12:58:11;;;;;;;7.10;3.13;;;;;;;;;;5004962;28;20076;-46
2021/06/03 13:00:38;;;;;;;7.93;3.20;;;;;;;;;;5013481;28;20050;-50
2021/06/03 13:03:19;;;;;;;5.90;3.05;;;;;;;;;;5013859;28;20107;-47
2021/06/03 13:05:47;;;;;;;7.63;3.70;;;;;;;;;;5012293;28;20092;-47
2021/06/03 13:08:15;;;;;;;4.30;3.20;;;;;;;;;;4997063;28;20424;-46
2021/06/03 13:10:42;;;;;;;5.20;3.00;;;;;;;;;;4992110;28;20061;-43
2021/06/03 13:13:10;;;;;;;4.97;2.90;;;;;;;;;;4991781;28;20073;-49
2021/06/03 13:15:44;;;;;;;5.03;2.75;;;;;;;;;;5012233;28;20054;-46
2021/06/03 13:18:12;;;;;;;7.72;3.00;;;;;;;;;;4992814;28;20058;-44
2021/06/03 13:20:46;;;;;;;4.05;2.75;;;;;;;;;;4992490;28;20125;-47
2021/06/03 13:23:14;;;;;;;4.03;2.83;;;;;;;;;;4992216;28;20054;-46
2021/06/03 13:25:45;;;;;;;3.60;2.70;;;;;;;;;;4992448;28;20109;-45
2021/06/03 13:28:16;;;;;;;6.28;2.95;;;;;;;;;;4991653;28;20057;-46
2021/06/03 13:30:47;;;;;;;3.38;2.60;;;;;;;;;;4992542;28;20081;-45
2021/06/03 13:33:18;;;;;;;3.72;2.80;;;;;;;;;;5010419;28;20057;-44
2021/06/03 13:35:47;;;;;;;4.97;3.10;;;;;;;;;;5010871;28;20037;-46
2021/06/03 13:38:14;;;;;;;4.50;2.97;;;;;;;;;;5003385;28;20070;-46
2021/06/03 13:40:44;;;;;;;5.25;2.80;;;;;;;;;;5011896;28;20125;-44
2021/06/03 13:43:12;;;;;;;4.78;3.10;;;;;;;;;;5012043;28;20066;-48
2021/06/03 13:45:43;;;;;;;5.13;3.80;;;;;;;;;;5011816;28;20081;-50
2021/06/03 13:48:17;;;;;;;4.20;2.90;;;;;;;;;;5006434;28;20080;-50
2021/06/03 13:50:50;;;;;;;6.20;2.97;;;;;;;;;;5012183;28;20054;-45
2021/06/03 13:53:26;;;;;;;3.90;3.17;;;;;;;;;;5012578;28;20137;-50
2021/06/03 13:55:53;;;;;;;4.07;2.78;;;;;;;;;;5002850;28;20139;-49
2021/06/03 13:58:30;;;;;;;3.60;2.80;;;;;;;;;;4991436;28;20499;-45
2021/06/03 14:01:07;;;;;;;3.70;2.65;;;;;;;;;;4991815;28;20137;-43
2021/06/03 14:03:39;;;;;;;5.47;3.00;;;;;;;;;;4991890;28;20092;-48
2021/06/03 14:06:06;;;;;;;4.93;2.80;;;;;;;;;;5001113;28;20114;-47
2021/06/03 14:08:34;;;;;;;7.43;3.30;;;;;;;;;;4999242;28;20082;-42
2021/06/03 14:11:02;;;;;;;6.35;2.90;;;;;;;;;;4991766;28;20058;-50
2021/06/03 14:13:29;;;;;;;4.72;3.30;;;;;;;;;;4991663;28;20058;-48
2021/06/03 14:15:56;;;;;;;4.13;2.97;;;;;;;;;;4991604;28;20050;-48
2021/06/03 14:18:24;;;;;;;3.75;2.92;;;;;;;;;;4991650;28;20047;-46
2021/06/03 14:20:53;;;;;;;7.70;3.20;;;;;;;;;;4992113;28;20554;-51
2021/06/03 14:23:20;;;;;;;3.97;2.90;;;;;;;;;;5004087;28;20042;-45
2021/06/03 14:25:47;;;;;;;3.03;2.67;;;;;;;;;;5002330;28;20054;-49
2021/06/03 14:28:15;;;;;;;3.55;2.80;;;;;;;;;;5009695;28;20057;-47
2021/06/03 14:30:49;;;;;;;4.15;2.92;;;;;;;;;;5012624;28;20065;-48
2021/06/03 14:33:17;;;;;;;6.10;2.75;;;;;;;;;;5017952;28;20080;-47
2021/06/03 14:35:45;;;;;;;4.03;2.58;;;;;;;;;;5017755;28;20066;-44
2021/06/03 14:38:22;;;;;;;3.63;2.45;;;;;;;;;;5008914;28;20173;-47
2021/06/03 14:40:49;;;;;;;4.25;2.55;;;;;;;;;;5014392;28;20085;-44
2021/06/03 14:43:26;;;;;;;5.13;2.78;;;;;;;;;;5017414;28;20050;-46
2021/06/03 14:45:55;;;;;;;5.07;2.70;;;;;;;;;;5017935;28;20073;-44
2021/06/03 14:48:23;;;;;;;5.32;2.53;;;;;;;;;;5009507;28;20172;-48
2021/06/03 14:50:51;;;;;;;5.70;2.65;;;;;;;;;;5017391;28;20408;-51
2021/06/03 14:53:19;;;;;;;4.10;2.75;;;;;;;;;;5017408;28;20468;-47
2021/06/03 14:55:47;;;;;;;4.10;2.80;;;;;;;;;;5004347;28;20113;-47
2021/06/03 14:58:14;;;;;;;3.97;2.50;;;;;;;;;;5015857;28;20481;-44